Time;durP1;ratioP1;P1;durP2;ratioP2;P2;SDS_P1;SDS_P2;PMS_P1;PMS_P2;Temp;Humidity;BMP_temperature;BMP_pressure;BME280_temperature;BME280_humidity;BME280_pressure;Samples;Min_cycle;Max_cycle;Signal;HPM_P1;HPM_P2
2022/06/16 00:01:41;;;;;;;;;;;14.20;99.90;;;;;;5073043;28;19913;-74
2022/06/16 00:04:06;;;;;;;;;;;14.10;99.90;;;;;;5071216;28;19908;-74
2022/06/16 00:06:32;;;;;;;;;;;14.10;99.90;;;;;;5073354;28;19908;-74
2022/06/16 00:08:58;;;;;;;;;;;14.10;99.90;;;;;;5073356;28;19908;-74
2022/06/16 00:11:23;;;;;;;;;;;14.10;99.90;;;;;;5073024;28;19908;-74
2022/06/16 00:13:50;;;;;;;;;;;14.00;99.90;;;;;;5071510;28;19912;-74
2022/06/16 00:16:15;;;;;;;;;;;14.00;99.90;;;;;;5076202;28;19915;-74
2022/06/16 00:18:41;;;;;;;;;;;14.00;99.90;;;;;;5081682;28;19912;-74
2022/06/16 00:21:07;;;;;;;;;;;14.00;99.90;;;;;;5072838;28;19916;-74
2022/06/16 00:23:33;;;;;;;;;;;14.00;99.90;;;;;;5071947;28;19955;-74
2022/06/16 00:25:59;;;;;;;;;;;13.90;99.90;;;;;;5072833;28;19919;-74
2022/06/16 00:28:25;;;;;;;;;;;13.90;99.90;;;;;;5072961;28;19909;-73
2022/06/16 00:30:50;;;;;;;;;;;13.80;99.90;;;;;;5072639;28;20035;-73
2022/06/16 00:33:16;;;;;;;;;;;13.70;99.90;;;;;;5071541;28;19916;-74
2022/06/16 00:35:42;;;;;;;;;;;13.70;99.90;;;;;;5072746;28;19909;-74
2022/06/16 00:38:07;;;;;;;;;;;13.70;99.90;;;;;;5072785;28;19915;-73
2022/06/16 00:40:33;;;;;;;;;;;13.70;99.90;;;;;;5072814;28;19956;-74
2022/06/16 00:42:59;;;;;;;;;;;13.80;99.90;;;;;;5072514;28;20484;-73
2022/06/16 00:45:43;;;;;;;;;;;13.90;99.90;;;;;;5077406;28;20288;-74
2022/06/16 00:48:17;;;;;;;;;;;13.90;99.90;;;;;;5076170;28;19925;-74
2022/06/16 00:50:44;;;;;;;;;;;13.90;99.90;;;;;;5073240;28;19908;-73
2022/06/16 00:53:10;;;;;;;;;;;13.80;99.90;;;;;;5071161;28;19947;-74
2022/06/16 00:55:35;;;;;;;;;;;13.80;99.90;;;;;;5072244;28;20401;-73
2022/06/16 00:58:01;;;;;;;;;;;13.70;99.90;;;;;;5072224;28;19940;-74
2022/06/16 01:00:29;;;;;;;;;;;13.60;99.90;;;;;;5072111;28;19935;-74
2022/06/16 01:02:55;;;;;;;;;;;13.60;99.90;;;;;;5071711;28;19916;-74
2022/06/16 01:05:23;;;;;;;;;;;13.50;99.90;;;;;;5071458;28;19991;-74
2022/06/16 01:07:49;;;;;;;;;;;13.50;99.90;;;;;;5072066;28;19991;-73
2022/06/16 01:10:16;;;;;;;;;;;13.30;99.90;;;;;;5072199;28;19986;-74
2022/06/16 01:15:44;;;;;;;;;;;13.20;99.90;;;;;;5081456;28;19961;-73
2022/06/16 01:18:09;;;;;;;;;;;13.20;99.90;;;;;;5079936;28;20002;-73
2022/06/16 01:20:46;;;;;;;;;;;13.10;99.90;;;;;;5071797;28;20007;-73
2022/06/16 01:23:30;;;;;;;;;;;13.10;99.90;;;;;;5071003;28;19916;-74
2022/06/16 01:26:19;;;;;;;;;;;13.00;99.90;;;;;;5071827;28;19969;-74
2022/06/16 01:29:14;;;;;;;;;;;12.80;99.90;;;;;;5077837;28;19914;-73
2022/06/16 01:31:45;;;;;;;;;;;13.00;99.90;;;;;;5077219;28;19943;-73
2022/06/16 01:34:11;;;;;;;;;;;13.10;99.90;;;;;;5090360;28;19915;-73
2022/06/16 01:36:41;;;;;;;;;;;13.00;99.90;;;;;;5091293;28;19908;-73
2022/06/16 01:39:11;;;;;;;;;;;12.80;99.90;;;;;;5091407;28;19962;-73
2022/06/16 01:41:48;;;;;;;;;;;12.70;99.90;;;;;;5090616;28;19922;-73
2022/06/16 01:44:36;;;;;;;;;;;12.90;99.90;;;;;;5090360;28;20332;-73
2022/06/16 01:47:08;;;;;;;;;;;13.00;99.90;;;;;;5083103;28;19908;-73
2022/06/16 01:49:35;;;;;;;;;;;12.90;99.90;;;;;;5079838;28;19916;-73
2022/06/16 01:52:12;;;;;;;;;;;12.80;99.90;;;;;;5071913;28;19948;-73
2022/06/16 01:54:39;;;;;;;;;;;12.80;99.90;;;;;;5074924;28;20007;-73
2022/06/16 01:57:10;;;;;;;;;;;12.60;99.90;;;;;;5074761;28;19915;-73
2022/06/16 01:59:45;;;;;;;;;;;12.70;99.90;;;;;;5084619;28;19915;-73
2022/06/16 02:02:13;;;;;;;;;;;12.80;99.90;;;;;;5090344;28;19966;-73
2022/06/16 02:04:41;;;;;;;;;;;12.80;99.90;;;;;;5090276;28;19962;-73
2022/06/16 02:07:13;;;;;;;;;;;12.60;99.90;;;;;;5090640;28;19908;-73
2022/06/16 02:09:41;;;;;;;;;;;12.70;99.90;;;;;;5090857;28;19908;-73
2022/06/16 02:12:10;;;;;;;;;;;12.60;99.90;;;;;;5110840;28;19904;-74
2022/06/16 02:14:42;;;;;;;;;;;12.50;99.90;;;;;;5116689;28;19977;-74
2022/06/16 02:17:08;;;;;;;;;;;12.60;99.90;;;;;;5116960;28;19916;-73
2022/06/16 02:19:35;;;;;;;;;;;12.60;99.90;;;;;;5110073;28;19959;-74
2022/06/16 02:22:01;;;;;;;;;;;12.40;99.90;;;;;;5103933;28;19914;-74
2022/06/16 02:24:27;;;;;;;;;;;12.30;99.90;;;;;;5100881;28;19904;-74
2022/06/16 02:26:54;;;;;;;;;;;12.20;99.90;;;;;;5083784;28;19951;-73
2022/06/16 02:29:29;;;;;;;;;;;12.40;99.90;;;;;;5075282;28;20293;-73
2022/06/16 02:32:00;;;;;;;;;;;12.50;99.90;;;;;;5074789;28;19962;-73
2022/06/16 02:34:41;;;;;;;;;;;12.40;99.90;;;;;;5074197;28;20376;-73
2022/06/16 02:37:27;;;;;;;;;;;12.40;99.90;;;;;;5075150;28;20385;-73
2022/06/16 02:39:52;;;;;;;;;;;12.20;99.90;;;;;;5069997;28;19966;-73
2022/06/16 02:42:31;;;;;;;;;;;12.10;99.90;;;;;;5073486;28;19951;-73
2022/06/16 02:45:03;;;;;;;;;;;12.10;99.90;;;;;;5074579;28;19996;-73
2022/06/16 02:47:57;;;;;;;;;;;12.20;99.90;;;;;;5074877;28;19962;-73
2022/06/16 02:50:55;;;;;;;;;;;12.10;99.90;;;;;;5086272;28;19934;-73
2022/06/16 02:53:22;;;;;;;;;;;12.20;99.90;;;;;;5039739;28;19908;-73
2022/06/16 02:55:51;;;;;;;;;;;12.20;99.90;;;;;;5073307;28;19909;-73
2022/06/16 02:58:18;;;;;;;;;;;12.40;99.90;;;;;;5074695;28;19908;-73
2022/06/16 03:00:45;;;;;;;;;;;12.60;99.90;;;;;;5074242;28;19912;-73
2022/06/16 03:03:16;;;;;;;;;;;12.80;99.90;;;;;;5073580;28;19909;-73
2022/06/16 03:05:42;;;;;;;;;;;12.80;99.90;;;;;;5074083;28;19909;-73
2022/06/16 03:08:07;;;;;;;;;;;12.70;99.90;;;;;;5074362;28;20339;-73
2022/06/16 03:10:51;;;;;;;;;;;12.60;99.90;;;;;;5074326;28;20100;-73
2022/06/16 03:13:21;;;;;;;;;;;12.60;99.90;;;;;;5072427;28;19999;-73
2022/06/16 03:15:47;;;;;;;;;;;12.50;99.90;;;;;;5087066;28;20033;-73
2022/06/16 03:18:13;;;;;;;;;;;12.30;99.90;;;;;;5089935;28;19912;-73
2022/06/16 03:20:38;;;;;;;;;;;12.20;99.90;;;;;;5077173;28;19924;-73
2022/06/16 03:23:04;;;;;;;;;;;12.20;99.90;;;;;;5072777;28;19916;-73
2022/06/16 03:25:29;;;;;;;;;;;11.90;99.90;;;;;;5093018;28;19928;-73
2022/06/16 03:27:55;;;;;;;;;;;12.00;99.90;;;;;;5093562;28;19915;-73
2022/06/16 03:30:20;;;;;;;;;;;12.10;99.90;;;;;;5093179;28;19999;-73
2022/06/16 03:32:46;;;;;;;;;;;12.10;99.90;;;;;;5092999;28;19963;-73
2022/06/16 03:35:11;;;;;;;;;;;12.00;99.90;;;;;;5092580;28;20475;-73
2022/06/16 03:37:37;;;;;;;;;;;12.00;99.90;;;;;;5093289;28;19908;-73
2022/06/16 03:40:03;;;;;;;;;;;12.10;99.90;;;;;;5093210;28;19908;-73
2022/06/16 03:42:30;;;;;;;;;;;12.40;99.90;;;;;;5092825;28;20274;-73
2022/06/16 03:44:55;;;;;;;;;;;12.60;99.90;;;;;;5092563;28;19908;-73
2022/06/16 03:47:22;;;;;;;;;;;12.60;99.90;;;;;;5092153;28;19923;-74
2022/06/16 03:49:47;;;;;;;;;;;12.70;99.90;;;;;;5084282;28;19908;-74
2022/06/16 03:52:13;;;;;;;;;;;12.80;99.90;;;;;;5076023;28;19908;-74
2022/06/16 03:54:38;;;;;;;;;;;13.00;99.90;;;;;;5072992;28;19909;-74
2022/06/16 03:57:04;;;;;;;;;;;13.10;99.90;;;;;;5073642;28;19916;-74
2022/06/16 03:59:30;;;;;;;;;;;13.30;99.90;;;;;;5073399;28;19912;-74
2022/06/16 04:01:55;;;;;;;;;;;13.50;99.90;;;;;;5073024;28;19951;-74
2022/06/16 04:04:21;;;;;;;;;;;13.70;99.90;;;;;;5072535;28;19963;-74
2022/06/16 04:06:46;;;;;;;;;;;13.80;99.90;;;;;;5073465;28;19916;-74
2022/06/16 04:09:12;;;;;;;;;;;14.00;99.90;;;;;;5072265;28;19909;-74
2022/06/16 04:11:37;;;;;;;;;;;14.10;99.90;;;;;;5072885;28;19951;-74
2022/06/16 04:14:07;;;;;;;;;;;14.30;99.90;;;;;;5072676;28;19908;-74
2022/06/16 04:16:35;;;;;;;;;;;14.40;99.90;;;;;;5073155;28;19908;-74
2022/06/16 04:19:01;;;;;;;;;;;14.40;99.90;;;;;;5074350;28;19909;-74
2022/06/16 04:21:27;;;;;;;;;;;14.60;99.90;;;;;;5082792;28;19964;-74
2022/06/16 04:23:53;;;;;;;;;;;14.60;99.90;;;;;;5072476;28;20361;-74
2022/06/16 04:26:18;;;;;;;;;;;14.50;99.90;;;;;;5072945;28;20390;-74
2022/06/16 04:28:44;;;;;;;;;;;14.50;99.90;;;;;;5072837;28;19959;-74
2022/06/16 04:31:10;;;;;;;;;;;14.40;99.90;;;;;;5072777;28;19908;-74
2022/06/16 04:33:35;;;;;;;;;;;14.50;99.90;;;;;;5071803;28;20101;-74
2022/06/16 04:36:02;;;;;;;;;;;14.60;99.90;;;;;;5072542;28;19915;-74
2022/06/16 04:38:27;;;;;;;;;;;14.70;99.90;;;;;;5071337;28;19908;-74
2022/06/16 04:40:53;;;;;;;;;;;14.70;99.90;;;;;;5072571;28;19912;-74
2022/06/16 04:43:19;;;;;;;;;;;14.90;99.90;;;;;;5071017;28;20305;-74
2022/06/16 04:45:44;;;;;;;;;;;15.20;99.90;;;;;;5072431;28;20380;-74
2022/06/16 04:48:10;;;;;;;;;;;15.40;99.90;;;;;;5078206;28;19908;-74
2022/06/16 04:50:36;;;;;;;;;;;15.40;99.90;;;;;;5078719;28;20162;-74
2022/06/16 04:53:02;;;;;;;;;;;15.50;99.90;;;;;;5072933;28;20332;-74
2022/06/16 04:55:28;;;;;;;;;;;15.40;99.90;;;;;;5070680;28;19948;-75
2022/06/16 04:57:56;;;;;;;;;;;15.50;99.90;;;;;;5072376;28;19909;-74
2022/06/16 05:00:22;;;;;;;;;;;15.90;99.90;;;;;;5071090;28;20316;-74
2022/06/16 05:02:47;;;;;;;;;;;16.00;99.90;;;;;;5071919;28;19915;-74
2022/06/16 05:05:13;;;;;;;;;;;16.20;99.90;;;;;;5070188;28;19961;-74
2022/06/16 05:07:38;;;;;;;;;;;16.30;99.90;;;;;;5072134;28;20098;-74
2022/06/16 05:10:04;;;;;;;;;;;16.30;99.90;;;;;;5070801;28;19919;-74
2022/06/16 05:12:30;;;;;;;;;;;16.40;99.90;;;;;;5071618;28;19908;-74
2022/06/16 05:14:55;;;;;;;;;;;16.40;99.90;;;;;;5070096;28;19915;-74
2022/06/16 05:17:21;;;;;;;;;;;16.30;99.90;;;;;;5070667;28;19915;-74
2022/06/16 05:19:46;;;;;;;;;;;16.40;99.90;;;;;;5076472;28;20281;-74
2022/06/16 05:22:12;;;;;;;;;;;16.40;99.90;;;;;;5075968;28;19916;-74
2022/06/16 05:24:38;;;;;;;;;;;16.40;99.90;;;;;;5075384;28;19912;-74
2022/06/16 05:27:04;;;;;;;;;;;16.60;99.90;;;;;;5089885;28;19915;-75
2022/06/16 05:29:30;;;;;;;;;;;16.90;99.90;;;;;;5091133;28;19912;-74
2022/06/16 05:31:56;;;;;;;;;;;17.10;99.90;;;;;;5090932;28;20288;-74
2022/06/16 05:34:22;;;;;;;;;;;17.10;99.90;;;;;;5090360;28;19908;-74
2022/06/16 05:36:47;;;;;;;;;;;17.10;99.90;;;;;;5091034;28;20277;-74
2022/06/16 05:39:13;;;;;;;;;;;17.20;99.90;;;;;;5091089;28;19916;-75
2022/06/16 05:41:39;;;;;;;;;;;17.40;99.90;;;;;;5090400;28;19912;-75
2022/06/16 05:44:05;;;;;;;;;;;17.50;99.90;;;;;;5090482;28;20358;-74
2022/06/16 05:46:30;;;;;;;;;;;17.60;99.90;;;;;;5090957;28;19969;-75
2022/06/16 05:48:56;;;;;;;;;;;17.80;99.90;;;;;;5083930;28;19913;-75
2022/06/16 05:51:23;;;;;;;;;;;18.00;99.90;;;;;;5077488;28;19987;-74
2022/06/16 05:53:49;;;;;;;;;;;18.00;99.90;;;;;;5069687;28;19915;-75
2022/06/16 05:56:15;;;;;;;;;;;18.20;99.90;;;;;;5071245;28;20340;-75
2022/06/16 05:58:41;;;;;;;;;;;19.20;99.90;;;;;;5071277;28;19908;-75
2022/06/16 06:01:06;;;;;;;;;;;20.50;99.90;;;;;;5090768;28;19912;-74
2022/06/16 06:03:32;;;;;;;;;;;20.70;99.90;;;;;;5089588;28;20326;-75
2022/06/16 06:05:59;;;;;;;;;;;21.20;99.40;;;;;;5089457;28;20151;-75
2022/06/16 06:16:41;;;;;;;;;;;19.50;99.90;;;;;;5090944;28;19954;-75
2022/06/16 06:19:23;;;;;;;;;;;19.40;99.90;;;;;;5083265;28;19943;-75
2022/06/16 06:21:58;;;;;;;;;;;19.40;99.90;;;;;;5072711;28;20340;-75
2022/06/16 06:24:25;;;;;;;;;;;19.50;99.90;;;;;;5070759;28;20274;-75
2022/06/16 06:26:50;;;;;;;;;;;19.60;99.90;;;;;;5071243;28;19908;-75
2022/06/16 06:29:16;;;;;;;;;;;19.50;99.90;;;;;;5071236;28;19908;-75
2022/06/16 06:31:41;;;;;;;;;;;19.60;99.90;;;;;;5070556;28;20357;-74
2022/06/16 06:34:07;;;;;;;;;;;21.20;99.90;;;;;;5070247;28;19952;-75
2022/06/16 06:36:32;;;;;;;;;;;22.30;96.40;;;;;;5070771;28;20369;-75
2022/06/16 06:38:58;;;;;;;;;;;23.00;94.50;;;;;;5071085;28;19908;-72
2022/06/16 06:41:23;;;;;;;;;;;23.60;94.40;;;;;;5070463;28;19958;-73
2022/06/16 06:43:49;;;;;;;;;;;23.60;91.20;;;;;;5070320;28;19913;-73
2022/06/16 06:46:15;;;;;;;;;;;23.90;90.50;;;;;;5070922;28;19908;-73
2022/06/16 06:48:40;;;;;;;;;;;24.70;88.70;;;;;;5071336;28;19971;-73
2022/06/16 06:51:06;;;;;;;;;;;25.30;83.50;;;;;;5084716;28;19908;-74
2022/06/16 06:53:31;;;;;;;;;;;25.30;78.10;;;;;;5079384;28;20421;-73
2022/06/16 06:55:57;;;;;;;;;;;25.20;80.30;;;;;;5071064;28;19908;-73
2022/06/16 06:58:23;;;;;;;;;;;25.10;81.60;;;;;;5070981;28;19912;-73
2022/06/16 07:00:51;;;;;;;;;;;25.10;82.30;;;;;;5070620;28;19912;-74
2022/06/16 07:03:17;;;;;;;;;;;25.00;83.40;;;;;;5069755;28;19909;-74
2022/06/16 07:05:42;;;;;;;;;;;25.80;78.00;;;;;;5070986;28;19931;-74
2022/06/16 07:08:08;;;;;;;;;;;25.50;74.60;;;;;;5074435;28;20273;-74
2022/06/16 07:10:33;;;;;;;;;;;24.50;79.00;;;;;;5074420;28;19908;-75
2022/06/16 07:12:59;;;;;;;;;;;23.80;83.10;;;;;;5073912;28;19919;-74
2022/06/16 07:15:24;;;;;;;;;;;23.30;88.90;;;;;;5073524;28;20301;-74
2022/06/16 07:17:50;;;;;;;;;;;23.20;87.20;;;;;;5078235;28;19936;-74
2022/06/16 07:20:16;;;;;;;;;;;24.10;86.50;;;;;;5078076;28;19919;-74
2022/06/16 07:22:43;;;;;;;;;;;25.50;78.40;;;;;;5073534;28;20370;-74
2022/06/16 07:25:08;;;;;;;;;;;24.80;81.60;;;;;;5076465;28;19908;-75
2022/06/16 07:27:34;;;;;;;;;;;23.90;84.70;;;;;;5076834;28;20004;-74
2022/06/16 07:29:59;;;;;;;;;;;23.70;81.70;;;;;;5073883;28;20527;-74
2022/06/16 07:32:25;;;;;;;;;;;23.80;87.70;;;;;;5072383;28;20262;-74
2022/06/16 07:34:51;;;;;;;;;;;23.70;89.00;;;;;;5073162;28;19975;-75
2022/06/16 07:37:17;;;;;;;;;;;23.50;90.50;;;;;;5073853;28;19951;-74
2022/06/16 07:39:42;;;;;;;;;;;24.50;84.90;;;;;;5073860;28;19983;-75
2022/06/16 07:42:08;;;;;;;;;;;25.60;84.30;;;;;;5073375;28;19913;-74
2022/06/16 07:44:34;;;;;;;;;;;25.90;82.20;;;;;;5073031;28;19917;-75
2022/06/16 07:47:00;;;;;;;;;;;25.20;78.30;;;;;;5073708;28;20321;-75
2022/06/16 07:49:27;;;;;;;;;;;26.30;78.30;;;;;;5084066;28;19954;-74
2022/06/16 07:51:54;;;;;;;;;;;26.60;77.30;;;;;;5075799;28;19913;-75
2022/06/16 07:54:20;;;;;;;;;;;27.90;73.10;;;;;;5073027;28;19947;-74
2022/06/16 07:56:46;;;;;;;;;;;27.40;76.60;;;;;;5073446;28;19955;-75
2022/06/16 07:59:12;;;;;;;;;;;27.80;74.10;;;;;;5072047;28;19951;-75
2022/06/16 08:01:37;;;;;;;;;;;26.30;73.20;;;;;;5072867;28;19912;-74
2022/06/16 08:04:05;;;;;;;;;;;25.60;83.10;;;;;;5072532;28;19908;-74
2022/06/16 08:06:32;;;;;;;;;;;26.80;78.20;;;;;;5072063;28;19920;-74
2022/06/16 08:08:57;;;;;;;;;;;27.50;77.00;;;;;;5073315;28;19913;-74
2022/06/16 08:14:07;;;;;;;;;;;26.40;71.90;;;;;;5072804;28;20177;-75
2022/06/16 08:16:33;;;;;;;;;;;26.00;79.20;;;;;;5072963;28;19955;-74
2022/06/16 08:19:02;;;;;;;;;;;25.60;80.80;;;;;;5076132;28;19909;-74
2022/06/16 08:21:28;;;;;;;;;;;27.10;78.90;;;;;;5086558;28;19948;-74
2022/06/16 08:23:53;;;;;;;;;;;27.50;71.80;;;;;;5072489;28;19915;-74
2022/06/16 08:26:19;;;;;;;;;;;28.60;77.00;;;;;;5072840;28;19977;-74
2022/06/16 08:28:45;;;;;;;;;;;28.70;79.80;;;;;;5072980;28;19905;-74
2022/06/16 08:31:11;;;;;;;;;;;28.80;73.80;;;;;;5072886;28;19915;-74
2022/06/16 08:33:36;;;;;;;;;;;28.40;70.90;;;;;;5071924;28;19912;-74
2022/06/16 08:36:02;;;;;;;;;;;27.80;75.50;;;;;;5072477;28;19916;-74
2022/06/16 08:38:27;;;;;;;;;;;27.10;71.30;;;;;;5072741;28;19915;-74
2022/06/16 08:41:11;;;;;;;;;;;28.40;71.50;;;;;;5072441;28;20032;-74
2022/06/16 08:43:39;;;;;;;;;;;27.90;71.50;;;;;;5071491;28;19920;-74
2022/06/16 08:46:06;;;;;;;;;;;28.00;70.60;;;;;;5078132;28;19918;-74
2022/06/16 08:48:41;;;;;;;;;;;27.30;73.90;;;;;;5078410;28;20969;-74
2022/06/16 08:51:16;;;;;;;;;;;27.70;73.10;;;;;;5078261;28;19908;-74
2022/06/16 08:53:46;;;;;;;;;;;27.80;71.80;;;;;;5077963;28;19909;-74
2022/06/16 08:56:14;;;;;;;;;;;27.90;72.90;;;;;;5072324;28;19909;-74
2022/06/16 08:58:42;;;;;;;;;;;28.70;71.10;;;;;;5072374;28;19919;-74
2022/06/16 09:01:19;;;;;;;;;;;28.00;71.20;;;;;;5072099;28;19956;-74
2022/06/16 09:03:49;;;;;;;;;;;28.00;69.40;;;;;;5084622;28;19909;-74
2022/06/16 09:06:17;;;;;;;;;;;28.20;73.10;;;;;;5077528;28;19912;-74
2022/06/16 09:08:42;;;;;;;;;;;27.10;74.30;;;;;;5075364;28;19915;-74
2022/06/16 09:11:11;;;;;;;;;;;28.30;74.10;;;;;;5072048;28;19909;-74
2022/06/16 09:13:45;;;;;;;;;;;26.80;72.00;;;;;;5071144;28;19931;-74
2022/06/16 09:16:29;;;;;;;;;;;27.40;69.80;;;;;;5072238;28;19915;-74
2022/06/16 09:18:55;;;;;;;;;;;27.30;70.80;;;;;;5071881;28;19995;-73
2022/06/16 09:21:20;;;;;;;;;;;27.20;69.80;;;;;;5070064;28;20070;-74
2022/06/16 09:24:01;;;;;;;;;;;27.20;72.90;;;;;;5077466;28;19909;-73
2022/06/16 09:26:30;;;;;;;;;;;26.80;68.80;;;;;;5075664;28;19955;-73
2022/06/16 09:28:59;;;;;;;;;;;26.70;73.50;;;;;;5071508;28;19908;-72
2022/06/16 09:31:28;;;;;;;;;;;27.80;70.10;;;;;;5071315;28;19951;-72
2022/06/16 09:33:58;;;;;;;;;;;27.70;67.20;;;;;;5071014;28;19970;-72
2022/06/16 09:36:27;;;;;;;;;;;27.10;68.80;;;;;;5071700;28;19915;-74
2022/06/16 09:38:56;;;;;;;;;;;27.80;68.00;;;;;;5071816;28;19917;-73
2022/06/16 09:44:50;;;;;;;;;;;27.30;66.10;;;;;;5034982;28;20476;-73
2022/06/16 09:47:18;;;;;;;;;;;27.40;67.00;;;;;;5065336;28;19909;-73
2022/06/16 09:49:45;;;;;;;;;;;27.10;67.60;;;;;;5071522;28;20377;-73
2022/06/16 09:52:16;;;;;;;;;;;27.50;68.70;;;;;;5077657;28;20262;-73
2022/06/16 09:54:44;;;;;;;;;;;27.50;67.50;;;;;;5077433;28;19908;-73
2022/06/16 09:57:13;;;;;;;;;;;26.70;67.00;;;;;;5071535;28;19917;-73
2022/06/16 09:59:46;;;;;;;;;;;27.60;67.40;;;;;;5071673;28;19909;-73
2022/06/16 10:02:23;;;;;;;;;;;28.00;67.10;;;;;;5069563;28;20369;-73
2022/06/16 10:04:52;;;;;;;;;;;27.50;69.80;;;;;;5070876;28;19909;-73
2022/06/16 10:07:29;;;;;;;;;;;28.10;66.70;;;;;;5071217;28;20011;-73
2022/06/16 10:10:01;;;;;;;;;;;27.80;66.60;;;;;;5071608;28;20277;-73
2022/06/16 10:12:32;;;;;;;;;;;29.30;66.20;;;;;;5070767;28;20319;-73
2022/06/16 10:15:05;;;;;;;;;;;28.60;63.80;;;;;;5083634;28;19908;-74
2022/06/16 10:17:32;;;;;;;;;;;29.40;64.90;;;;;;5090710;28;19908;-74
2022/06/16 10:19:58;;;;;;;;;;;28.90;62.60;;;;;;5090753;28;19908;-73
2022/06/16 10:22:24;;;;;;;;;;;28.60;65.00;;;;;;5084502;28;19923;-73
2022/06/16 10:25:08;;;;;;;;;;;30.20;66.10;;;;;;5083358;28;19912;-73
2022/06/16 10:27:37;;;;;;;;;;;29.60;62.40;;;;;;5090948;28;19919;-73
2022/06/16 10:30:05;;;;;;;;;;;28.80;62.40;;;;;;5090890;28;19908;-74
2022/06/16 10:32:36;;;;;;;;;;;29.10;68.50;;;;;;5090326;28;19916;-74
2022/06/16 10:35:02;;;;;;;;;;;29.50;63.20;;;;;;5090112;28;19909;-74
2022/06/16 10:37:29;;;;;;;;;;;29.80;66.80;;;;;;5090181;28;19914;-74
2022/06/16 10:40:02;;;;;;;;;;;28.90;62.80;;;;;;5090727;28;21367;-74
2022/06/16 10:42:28;;;;;;;;;;;29.10;61.50;;;;;;5094258;28;20395;-74
2022/06/16 10:44:58;;;;;;;;;;;28.60;61.80;;;;;;5093880;28;19908;-74
2022/06/16 10:47:27;;;;;;;;;;;28.70;64.30;;;;;;5094538;28;19958;-74
2022/06/16 10:49:53;;;;;;;;;;;29.70;63.20;;;;;;5094448;28;20007;-75
2022/06/16 10:52:24;;;;;;;;;;;29.30;59.90;;;;;;5084226;28;20015;-74
2022/06/16 10:54:55;;;;;;;;;;;28.50;63.00;;;;;;5085218;28;19961;-74
2022/06/16 10:57:26;;;;;;;;;;;29.20;65.10;;;;;;5076569;28;19908;-74
2022/06/16 10:59:56;;;;;;;;;;;29.40;64.00;;;;;;5075083;28;19947;-73
2022/06/16 11:02:26;;;;;;;;;;;29.00;62.20;;;;;;5079741;28;20011;-74
2022/06/16 11:04:56;;;;;;;;;;;29.00;60.50;;;;;;5074140;28;19913;-74
2022/06/16 11:07:22;;;;;;;;;;;28.90;65.30;;;;;;5074389;28;19908;-74
2022/06/16 11:09:48;;;;;;;;;;;28.80;60.00;;;;;;5094131;28;19930;-73
2022/06/16 11:12:23;;;;;;;;;;;28.30;63.40;;;;;;5093587;28;19914;-74
2022/06/16 11:14:48;;;;;;;;;;;28.40;63.40;;;;;;5092081;28;19992;-74
2022/06/16 11:17:25;;;;;;;;;;;28.70;65.40;;;;;;5092537;28;19943;-74
2022/06/16 11:19:53;;;;;;;;;;;28.60;64.40;;;;;;5094000;28;19959;-74
2022/06/16 11:22:27;;;;;;;;;;;27.70;64.90;;;;;;5086558;28;19971;-74
2022/06/16 11:25:13;;;;;;;;;;;28.00;66.30;;;;;;5075625;28;19912;-74
2022/06/16 11:27:41;;;;;;;;;;;27.90;65.50;;;;;;5065326;28;19908;-74
2022/06/16 11:30:25;;;;;;;;;;;28.60;64.30;;;;;;5074330;28;19916;-74
2022/06/16 11:32:50;;;;;;;;;;;30.00;62.10;;;;;;5087511;28;19908;-74
2022/06/16 11:35:16;;;;;;;;;;;29.60;63.30;;;;;;5085488;28;20337;-74
2022/06/16 11:37:48;;;;;;;;;;;30.20;61.50;;;;;;5093375;28;19948;-74
2022/06/16 11:40:13;;;;;;;;;;;30.20;63.40;;;;;;5093436;28;20429;-74
2022/06/16 11:42:44;;;;;;;;;;;29.10;61.20;;;;;;5093372;28;19912;-74
2022/06/16 11:45:10;;;;;;;;;;;28.60;63.40;;;;;;5092940;28;20010;-74
2022/06/16 11:47:41;;;;;;;;;;;29.70;62.90;;;;;;5093422;28;20050;-74
2022/06/16 11:50:07;;;;;;;;;;;28.40;62.80;;;;;;5093447;28;19912;-74
2022/06/16 11:52:48;;;;;;;;;;;28.40;64.30;;;;;;5084801;28;20323;-74
2022/06/16 11:55:13;;;;;;;;;;;30.00;63.20;;;;;;5079727;28;19916;-74
2022/06/16 11:57:51;;;;;;;;;;;29.80;63.00;;;;;;5073724;28;19912;-74
2022/06/16 12:00:17;;;;;;;;;;;29.00;62.70;;;;;;5072400;28;20313;-74
2022/06/16 12:02:45;;;;;;;;;;;28.60;64.70;;;;;;5073295;28;19908;-74
2022/06/16 12:05:29;;;;;;;;;;;28.80;61.90;;;;;;5073134;28;19913;-74
2022/06/16 12:08:07;;;;;;;;;;;29.10;62.80;;;;;;5073343;28;19915;-74
2022/06/16 12:10:38;;;;;;;;;;;29.60;61.50;;;;;;5087644;28;20269;-73
2022/06/16 12:13:12;;;;;;;;;;;28.30;62.30;;;;;;5091291;28;19909;-73
2022/06/16 12:15:37;;;;;;;;;;;28.80;64.70;;;;;;5092722;28;19911;-74
2022/06/16 12:18:05;;;;;;;;;;;27.70;63.40;;;;;;5092807;28;20041;-73
2022/06/16 12:20:52;;;;;;;;;;;28.80;63.70;;;;;;5092516;28;19918;-74
2022/06/16 12:23:24;;;;;;;;;;;28.90;66.70;;;;;;5079673;28;19916;-74
2022/06/16 12:26:00;;;;;;;;;;;30.30;63.60;;;;;;5077489;28;20113;-74
2022/06/16 12:28:32;;;;;;;;;;;29.40;59.80;;;;;;5086192;28;20294;-74
2022/06/16 12:31:05;;;;;;;;;;;30.20;61.30;;;;;;5073371;28;19954;-75
2022/06/16 12:33:53;;;;;;;;;;;31.20;57.50;;;;;;5072105;28;19908;-73
2022/06/16 12:36:21;;;;;;;;;;;31.20;55.80;;;;;;5072557;28;19915;-74
2022/06/16 12:38:49;;;;;;;;;;;32.60;54.80;;;;;;5073016;28;19912;-73
2022/06/16 12:41:21;;;;;;;;;;;32.40;55.10;;;;;;5072464;28;19912;-73
2022/06/16 12:43:54;;;;;;;;;;;32.50;53.50;;;;;;5072270;28;19915;-74
2022/06/16 12:46:26;;;;;;;;;;;33.30;53.80;;;;;;5072757;28;19920;-74
2022/06/16 12:48:56;;;;;;;;;;;31.80;54.20;;;;;;5092249;28;19912;-74
2022/06/16 12:51:25;;;;;;;;;;;32.80;51.00;;;;;;5089129;28;19912;-74
2022/06/16 12:53:55;;;;;;;;;;;34.20;49.60;;;;;;5084819;28;20428;-74
2022/06/16 12:56:34;;;;;;;;;;;34.10;50.40;;;;;;5072442;28;19915;-73
2022/06/16 12:59:04;;;;;;;;;;;32.90;48.80;;;;;;5072640;28;19913;-73
2022/06/16 13:01:29;;;;;;;;;;;32.30;51.90;;;;;;5072187;28;20385;-74
2022/06/16 13:04:07;;;;;;;;;;;31.80;53.00;;;;;;5071548;28;19910;-74
2022/06/16 13:06:34;;;;;;;;;;;33.60;50.70;;;;;;5070964;28;19908;-74
2022/06/16 13:09:04;;;;;;;;;;;33.70;46.10;;;;;;5072364;28;19913;-75
2022/06/16 13:11:32;;;;;;;;;;;33.00;48.90;;;;;;5071798;28;20431;-74
2022/06/16 13:14:00;;;;;;;;;;;33.30;45.70;;;;;;5071614;28;19919;-74
2022/06/16 13:16:27;;;;;;;;;;;32.60;47.10;;;;;;5072188;28;19909;-73
2022/06/16 13:18:57;;;;;;;;;;;33.80;44.20;;;;;;5070827;28;19912;-74
2022/06/16 13:21:27;;;;;;;;;;;33.50;46.40;;;;;;5071284;28;19916;-74
2022/06/16 13:24:01;;;;;;;;;;;32.70;44.80;;;;;;5083979;28;20373;-74
2022/06/16 13:26:47;;;;;;;;;;;33.40;48.20;;;;;;5072915;28;19920;-74
2022/06/16 13:29:18;;;;;;;;;;;34.30;49.60;;;;;;5086041;28;19915;-74
2022/06/16 13:31:43;;;;;;;;;;;33.60;45.80;;;;;;5090937;28;20293;-74
2022/06/16 13:34:14;;;;;;;;;;;32.40;47.00;;;;;;5090851;28;19915;-75
2022/06/16 13:36:47;;;;;;;;;;;33.80;46.60;;;;;;5091342;28;19912;-74
2022/06/16 13:39:32;;;;;;;;;;;34.30;42.30;;;;;;5091182;28;19912;-74
2022/06/16 13:42:11;;;;;;;;;;;34.20;42.50;;;;;;5084776;28;19913;-74
2022/06/16 13:44:38;;;;;;;;;;;33.40;44.30;;;;;;5084370;28;20259;-74
2022/06/16 13:47:03;;;;;;;;;;;33.80;47.20;;;;;;5091053;28;20049;-74
2022/06/16 13:49:29;;;;;;;;;;;34.50;47.30;;;;;;5091324;28;19950;-74
2022/06/16 13:52:05;;;;;;;;;;;34.20;46.20;;;;;;5085440;28;19909;-74
2022/06/16 13:54:32;;;;;;;;;;;32.80;45.80;;;;;;5076935;28;19912;-74
2022/06/16 13:57:15;;;;;;;;;;;34.00;45.40;;;;;;5071922;28;19909;-74
2022/06/16 13:59:42;;;;;;;;;;;33.10;45.30;;;;;;5071506;28;19922;-73
2022/06/16 14:02:10;;;;;;;;;;;32.50;46.20;;;;;;5071287;28;19917;-73
2022/06/16 14:05:00;;;;;;;;;;;32.70;46.60;;;;;;5071021;28;19908;-74
2022/06/16 14:07:30;;;;;;;;;;;33.40;43.00;;;;;;5071390;28;20292;-74
2022/06/16 14:10:05;;;;;;;;;;;33.10;42.00;;;;;;5090838;28;19909;-74
2022/06/16 14:12:44;;;;;;;;;;;33.10;45.10;;;;;;5090420;28;19985;-74
2022/06/16 14:15:11;;;;;;;;;;;33.70;44.10;;;;;;5091276;28;19912;-74
2022/06/16 14:17:36;;;;;;;;;;;33.60;45.50;;;;;;5095062;28;19908;-74
2022/06/16 14:20:11;;;;;;;;;;;33.50;46.40;;;;;;5094953;28;20249;-74
2022/06/16 14:22:40;;;;;;;;;;;33.50;47.20;;;;;;5085718;28;19916;-73
2022/06/16 14:25:15;;;;;;;;;;;32.70;46.40;;;;;;5078726;28;20000;-73
2022/06/16 14:27:52;;;;;;;;;;;31.90;47.60;;;;;;5075363;28;19909;-73
2022/06/16 14:30:19;;;;;;;;;;;32.20;47.50;;;;;;5075556;28;19948;-73
2022/06/16 14:32:49;;;;;;;;;;;34.10;45.60;;;;;;5074792;28;20374;-74
2022/06/16 14:35:19;;;;;;;;;;;32.60;45.10;;;;;;5074761;28;20255;-74
2022/06/16 14:37:45;;;;;;;;;;;32.90;45.30;;;;;;5074889;28;19908;-74
2022/06/16 14:40:19;;;;;;;;;;;33.20;45.70;;;;;;5074527;28;20296;-73
2022/06/16 14:42:45;;;;;;;;;;;32.80;47.20;;;;;;5074555;28;19919;-74
2022/06/16 14:45:26;;;;;;;;;;;32.10;49.10;;;;;;5074453;28;19915;-73